createdAt,value
2022-08-23T00:01:31.407Z,16.48
2022-08-23T00:04:07.059Z,16.27
2022-08-23T00:06:34.464Z,12.85
2022-08-23T00:09:06.349Z,9.50
2022-08-23T00:12:08.556Z,10.75
2022-08-23T00:14:42.004Z,13.02
2022-08-23T00:17:34.022Z,17.10
2022-08-23T00:20:02.159Z,10.50
2022-08-23T00:22:30.978Z,11.73
2022-08-23T00:24:58.684Z,16.08
2022-08-23T00:27:27.091Z,10.88
2022-08-23T00:29:55.960Z,13.45
2022-08-23T00:32:26.215Z,13.02
2022-08-23T00:34:54.072Z,13.63
2022-08-23T00:37:22.225Z,14.68
2022-08-23T00:39:49.354Z,11.98
2022-08-23T00:42:57.357Z,17.60
2022-08-23T00:45:58.885Z,15.70
2022-08-23T00:48:28.874Z,11.48
2022-08-23T00:51:16.882Z,12.45
2022-08-23T00:53:49.060Z,11.50
2022-08-23T00:56:18.424Z,14.13
2022-08-23T00:58:46.527Z,14.20
2022-08-23T01:01:15.445Z,9.77
2022-08-23T01:03:49.836Z,13.77
2022-08-23T01:06:35.537Z,10.38
2022-08-23T01:09:09.426Z,14.50
2022-08-23T01:11:42.848Z,10.40
2022-08-23T01:14:26.243Z,13.00
2022-08-23T01:16:56.452Z,9.70
2022-08-23T01:19:31.817Z,13.25
2022-08-23T01:22:30.333Z,11.23
2022-08-23T01:25:07.943Z,8.30
2022-08-23T01:27:41.694Z,10.90
2022-08-23T01:30:17.397Z,9.25
2022-08-23T01:33:12.001Z,14.02
2022-08-23T01:35:50.460Z,9.95
2022-08-23T01:38:21.918Z,15.48
2022-08-23T01:40:50.582Z,10.77
2022-08-23T01:43:21.473Z,22.92
2022-08-23T01:45:52.480Z,17.77
2022-08-23T01:48:23.162Z,16.55
2022-08-23T01:50:51.380Z,14.52
2022-08-23T01:53:19.609Z,14.43
2022-08-23T01:58:19.338Z,19.70
2022-08-23T02:00:46.573Z,13.90
2022-08-23T02:03:14.369Z,10.93
2022-08-23T02:05:42.767Z,16.33
2022-08-23T02:08:30.556Z,12.82
2022-08-23T02:10:59.823Z,10.95
2022-08-23T02:13:27.373Z,19.88
2022-08-23T02:15:58.539Z,10.07
2022-08-23T02:18:26.515Z,11.10
2022-08-23T02:20:56.881Z,11.20
2022-08-23T02:23:24.551Z,12.77
2022-08-23T02:25:52.710Z,12.30
2022-08-23T02:28:21.961Z,16.80
2022-08-23T02:30:50.721Z,12.45
2022-08-23T02:33:20.072Z,12.63
2022-08-23T02:35:49.061Z,12.52
2022-08-23T02:38:18.349Z,18.42
2022-08-23T02:40:46.029Z,17.27
2022-08-23T02:43:13.983Z,17.77
2022-08-23T02:45:46.150Z,13.10
2022-08-23T02:48:18.440Z,18.02
2022-08-23T02:51:00.883Z,18.13
2022-08-23T02:55:55.976Z,18.25
2022-08-23T02:58:24.312Z,14.88
2022-08-23T03:00:52.443Z,14.98
2022-08-23T03:03:22.600Z,13.10
2022-08-23T03:05:50.902Z,12.18
2022-08-23T03:08:23.332Z,17.30
2022-08-23T03:10:52.989Z,17.65
2022-08-23T03:13:21.229Z,13.32
2022-08-23T03:15:50.362Z,14.05
2022-08-23T03:18:17.703Z,11.15
2022-08-23T03:20:44.991Z,15.20
2022-08-23T03:23:13.621Z,12.07
2022-08-23T03:25:41.217Z,20.33
2022-08-23T03:28:17.111Z,15.20
2022-08-23T03:30:45.793Z,17.23
2022-08-23T03:33:18.457Z,17.52
2022-08-23T03:35:48.182Z,15.55
2022-08-23T03:38:19.798Z,17.80
2022-08-23T03:40:52.535Z,20.60
2022-08-23T03:43:20.559Z,17.60
2022-08-23T03:45:48.059Z,20.85
2022-08-23T03:48:16.849Z,17.98
2022-08-23T03:50:45.261Z,18.65
2022-08-23T03:53:15.371Z,25.67
2022-08-23T03:55:45.235Z,15.38
2022-08-23T03:58:17.614Z,17.02
2022-08-23T04:00:45.590Z,20.98
2022-08-23T04:03:13.075Z,15.13
2022-08-23T04:06:11.690Z,18.13
2022-08-23T04:08:39.060Z,18.48
2022-08-23T04:11:06.595Z,19.75
2022-08-23T04:13:36.491Z,18.58
2022-08-23T04:16:05.190Z,23.80
2022-08-23T04:18:43.616Z,16.10
2022-08-23T04:21:19.496Z,17.27
2022-08-23T04:23:49.423Z,20.15
2022-08-23T04:26:16.733Z,19.15
2022-08-23T04:28:45.451Z,25.13
2022-08-23T04:31:13.317Z,20.90
2022-08-23T04:33:43.701Z,24.50
2022-08-23T04:36:15.181Z,26.48
2022-08-23T04:38:42.558Z,17.90
2022-08-23T04:41:35.470Z,20.88
2022-08-23T04:44:03.642Z,22.38
2022-08-23T04:46:32.215Z,20.27
2022-08-23T04:49:02.199Z,24.42
2022-08-23T04:51:29.890Z,22.73
2022-08-23T04:53:57.237Z,23.27
2022-08-23T04:56:43.306Z,21.58
2022-08-23T04:59:13.093Z,24.58
2022-08-23T05:01:42.990Z,16.33
2022-08-23T05:04:10.885Z,22.33
2022-08-23T05:06:40.254Z,27.52
2022-08-23T05:09:07.940Z,25.25
2022-08-23T05:11:36.401Z,24.13
2022-08-23T05:14:04.978Z,23.15
2022-08-23T05:16:32.571Z,26.10
2022-08-23T05:19:09.170Z,28.38
2022-08-23T05:21:42.595Z,32.20
2022-08-23T05:24:13.829Z,24.88
2022-08-23T05:26:43.462Z,28.02
2022-08-23T05:29:11.691Z,27.00
2022-08-23T05:31:44.899Z,30.17
2022-08-23T05:34:16.132Z,27.88
2022-08-23T05:36:55.673Z,28.35
2022-08-23T05:39:35.920Z,19.90
2022-08-23T05:42:08.545Z,22.67
2022-08-23T05:44:37.490Z,24.15
2022-08-23T05:47:10.379Z,18.10
2022-08-23T05:52:15.444Z,18.25
2022-08-23T05:54:44.535Z,16.27
2022-08-23T05:57:24.656Z,19.20
2022-08-23T05:59:52.407Z,13.65
2022-08-23T06:02:19.707Z,15.70
2022-08-23T06:04:47.575Z,17.98
2022-08-23T06:07:16.761Z,26.10
2022-08-23T06:09:43.885Z,18.15
2022-08-23T06:12:11.815Z,23.75
2022-08-23T06:14:39.803Z,14.82
2022-08-23T06:17:07.196Z,11.68
2022-08-23T06:19:35.445Z,13.68
2022-08-23T06:22:24.859Z,15.43
2022-08-23T06:24:52.292Z,25.10
2022-08-23T06:27:23.811Z,11.75
2022-08-23T06:29:51.633Z,22.02
2022-08-23T06:32:45.095Z,15.65
2022-08-23T06:35:42.317Z,13.73
2022-08-23T06:38:41.270Z,10.90
2022-08-23T06:41:23.200Z,18.42
2022-08-23T06:44:08.638Z,12.00
2022-08-23T06:46:56.873Z,11.98
2022-08-23T06:49:25.762Z,12.88
2022-08-23T06:51:56.424Z,15.98
2022-08-23T06:54:57.748Z,12.02
2022-08-23T06:57:54.700Z,12.15
2022-08-23T07:00:56.756Z,9.43
2022-08-23T07:03:36.595Z,17.73
2022-08-23T07:06:26.998Z,10.80
2022-08-23T07:08:54.928Z,15.95
2022-08-23T07:11:23.927Z,15.25
2022-08-23T07:13:53.011Z,14.13
2022-08-23T07:16:20.704Z,13.30
2022-08-23T07:18:50.228Z,15.10
2022-08-23T07:21:19.734Z,10.10
2022-08-23T07:23:47.585Z,14.65
2022-08-23T07:26:17.701Z,9.48
2022-08-23T07:28:45.728Z,14.73
2022-08-23T07:31:20.179Z,8.52
2022-08-23T07:33:48.251Z,8.38
2022-08-23T07:36:23.465Z,12.32
2022-08-23T07:38:54.035Z,8.95
2022-08-23T07:41:24.747Z,7.60
2022-08-23T07:43:52.455Z,11.93
2022-08-23T07:46:20.080Z,7.45
2022-08-23T07:48:54.423Z,15.68
2022-08-23T07:51:26.296Z,11.63
2022-08-23T07:53:54.045Z,9.40
2022-08-23T07:56:23.135Z,9.93
2022-08-23T07:59:02.957Z,9.30
2022-08-23T08:01:56.859Z,9.68
2022-08-23T08:04:25.657Z,6.30
2022-08-23T08:07:17.231Z,10.13
2022-08-23T08:09:44.872Z,6.20
2022-08-23T08:12:12.911Z,11.15
2022-08-23T08:14:43.064Z,8.90
2022-08-23T08:17:12.593Z,5.35
2022-08-23T08:20:06.538Z,6.53
2022-08-23T08:22:58.526Z,6.07
2022-08-23T08:26:07.659Z,7.10
2022-08-23T08:28:37.161Z,9.60
2022-08-23T08:31:08.444Z,7.70
2022-08-23T08:33:36.444Z,14.70
2022-08-23T08:36:06.612Z,7.78
2022-08-23T08:38:48.220Z,13.45
2022-08-23T08:41:25.672Z,11.50
2022-08-23T08:44:05.431Z,5.50
2022-08-23T08:46:45.364Z,4.75
2022-08-23T08:49:42.265Z,7.05
2022-08-23T08:52:31.998Z,4.63
2022-08-23T08:55:18.241Z,6.85
2022-08-23T08:57:49.494Z,6.78
2022-08-23T09:00:32.529Z,5.55
2022-08-23T09:03:03.713Z,8.77
2022-08-23T09:05:37.082Z,6.60
2022-08-23T09:08:24.732Z,8.13
2022-08-23T09:11:14.056Z,6.28
2022-08-23T09:14:08.225Z,7.43
2022-08-23T09:16:51.206Z,4.95
2022-08-23T09:19:21.221Z,9.20
2022-08-23T09:22:05.411Z,7.75
2022-08-23T09:24:32.935Z,6.93
2022-08-23T09:27:10.166Z,8.95
2022-08-23T09:29:52.232Z,6.78
2022-08-23T09:32:30.056Z,12.68
2022-08-23T09:35:18.072Z,10.65
2022-08-23T09:38:07.266Z,12.90
2022-08-23T09:40:45.823Z,7.75
2022-08-23T09:43:27.396Z,6.20
2022-08-23T09:45:59.932Z,8.82
2022-08-23T09:48:37.112Z,13.40
2022-08-23T09:51:25.183Z,9.73
2022-08-23T09:54:19.175Z,4.68
2022-08-23T09:57:00.146Z,14.32
2022-08-23T09:59:27.556Z,7.43
2022-08-23T10:02:02.606Z,6.53
2022-08-23T10:04:38.014Z,6.10
2022-08-23T10:07:53.642Z,6.32
2022-08-23T10:10:25.727Z,5.93
2022-08-23T10:12:57.941Z,7.85
2022-08-23T10:16:07.901Z,7.43
2022-08-23T10:19:02.579Z,5.43
2022-08-23T10:21:54.786Z,7.20
2022-08-23T10:25:02.658Z,5.85
2022-08-23T10:27:55.841Z,9.13
2022-08-23T10:30:33.124Z,5.45
2022-08-23T10:33:07.389Z,5.25
2022-08-23T10:36:11.080Z,7.50
2022-08-23T10:38:46.433Z,6.10
2022-08-23T10:41:33.844Z,6.28
2022-08-23T10:44:42.004Z,8.15
2022-08-23T10:47:29.026Z,5.75
2022-08-23T10:50:00.836Z,7.28
2022-08-23T10:52:40.999Z,9.02
2022-08-23T10:55:25.000Z,7.18
2022-08-23T10:57:54.181Z,32.88
2022-08-23T11:00:27.234Z,8.65
2022-08-23T11:03:08.280Z,18.35
2022-08-23T11:05:38.878Z,8.57
2022-08-23T11:08:47.447Z,12.63
2022-08-23T11:11:37.281Z,5.60
2022-08-23T11:14:05.095Z,8.82
2022-08-23T11:16:32.907Z,8.90
2022-08-23T11:19:00.659Z,7.70
2022-08-23T11:21:38.636Z,11.73
2022-08-23T11:24:11.751Z,9.18
2022-08-23T11:26:40.984Z,10.43
2022-08-23T11:29:12.797Z,7.20
2022-08-23T11:31:58.855Z,3.97
2022-08-23T11:34:48.485Z,6.00
2022-08-23T11:37:19.184Z,9.73
2022-08-23T11:39:59.552Z,6.20
2022-08-23T11:42:38.730Z,8.13
2022-08-23T11:45:40.630Z,5.18
2022-08-23T11:48:43.519Z,4.47
2022-08-23T11:51:17.266Z,7.13
2022-08-23T11:54:00.380Z,9.70
2022-08-23T11:57:03.463Z,9.40
2022-08-23T11:59:49.276Z,5.38
2022-08-23T12:02:34.895Z,3.25
2022-08-23T12:05:20.692Z,11.27
2022-08-23T12:07:55.185Z,5.90
2022-08-23T12:10:45.613Z,3.72
2022-08-23T12:13:22.461Z,7.30
2022-08-23T12:16:16.963Z,5.30
2022-08-23T12:18:57.371Z,9.52
2022-08-23T12:21:33.337Z,5.43
2022-08-23T12:24:24.534Z,7.88
2022-08-23T12:27:10.806Z,6.47
2022-08-23T12:29:59.049Z,8.57
2022-08-23T12:33:03.046Z,9.63
2022-08-23T12:36:01.131Z,7.05
2022-08-23T12:38:53.731Z,17.40
2022-08-23T12:41:30.286Z,9.52
2022-08-23T12:44:04.584Z,10.63
2022-08-23T12:46:43.456Z,10.65
2022-08-23T12:49:24.844Z,12.52
2022-08-23T12:51:55.172Z,9.88
2022-08-23T12:54:34.939Z,6.43
2022-08-23T12:57:10.817Z,4.55
2022-08-23T12:59:45.358Z,9.80
2022-08-23T13:02:26.353Z,8.35
2022-08-23T13:04:59.642Z,13.30
2022-08-23T13:07:27.797Z,17.30
2022-08-23T13:09:56.967Z,8.00
2022-08-23T13:12:26.118Z,11.38
2022-08-23T13:14:55.305Z,12.55
2022-08-23T13:17:25.483Z,6.93
2022-08-23T13:20:15.304Z,11.88
2022-08-23T13:22:56.685Z,9.13
2022-08-23T13:25:44.351Z,7.95
2022-08-23T13:28:31.211Z,13.57
2022-08-23T13:31:10.856Z,9.13
2022-08-23T13:33:41.194Z,5.15
2022-08-23T13:36:17.731Z,12.67
2022-08-23T13:38:46.102Z,7.15
2022-08-23T13:41:28.674Z,24.20
2022-08-23T13:43:56.478Z,8.10
2022-08-23T13:46:32.219Z,8.68
2022-08-23T13:49:11.978Z,9.13
2022-08-23T13:51:42.154Z,7.63
2022-08-23T13:54:14.791Z,11.45
2022-08-23T13:56:54.077Z,9.25
2022-08-23T13:59:52.432Z,8.13
2022-08-23T14:02:22.448Z,22.45
2022-08-23T14:04:49.894Z,15.82
2022-08-23T14:07:17.997Z,10.48
2022-08-23T14:09:45.812Z,17.50
2022-08-23T14:12:21.789Z,13.88
2022-08-23T14:14:50.245Z,34.22
2022-08-23T14:17:20.602Z,15.40
2022-08-23T14:22:36.453Z,14.57
2022-08-23T14:25:06.806Z,10.10
2022-08-23T14:27:35.562Z,23.80
2022-08-23T14:30:05.747Z,21.35
2022-08-23T14:32:33.286Z,19.13
2022-08-23T14:35:01.062Z,25.05
2022-08-23T14:40:18.549Z,19.13
2022-08-23T14:42:47.294Z,17.05
2022-08-23T14:45:16.530Z,14.70
2022-08-23T14:47:44.149Z,8.50
2022-08-23T14:50:13.489Z,15.07
2022-08-23T14:52:45.799Z,13.88
2022-08-23T14:55:15.716Z,5.32
2022-08-23T14:57:43.989Z,9.63
2022-08-23T15:00:15.480Z,8.60
2022-08-23T15:02:46.210Z,9.02
2022-08-23T15:05:14.322Z,12.00
2022-08-23T15:07:41.739Z,8.40
2022-08-23T15:10:10.113Z,7.43
2022-08-23T15:15:26.883Z,7.95
2022-08-23T15:17:59.148Z,10.65
2022-08-23T15:20:31.147Z,6.55
2022-08-23T15:23:00.420Z,7.63
2022-08-23T15:25:34.510Z,8.02
2022-08-23T15:28:02.552Z,6.82
2022-08-23T15:30:30.378Z,7.57
2022-08-23T15:33:01.751Z,8.98
2022-08-23T15:35:33.072Z,12.15
2022-08-23T15:38:00.274Z,9.65
2022-08-23T15:40:27.625Z,6.50
2022-08-23T15:42:57.060Z,5.80
2022-08-23T15:45:26.262Z,7.88
2022-08-23T15:47:56.016Z,6.78
2022-08-23T15:50:28.101Z,7.47
2022-08-23T15:53:01.715Z,8.15
2022-08-23T15:55:32.959Z,12.48
2022-08-23T15:58:00.554Z,7.20
2022-08-23T16:00:28.393Z,6.97
2022-08-23T16:03:19.989Z,9.95
2022-08-23T16:05:46.402Z,16.33
2022-08-23T16:08:26.971Z,5.85
2022-08-23T16:10:55.539Z,12.02
2022-08-23T16:13:24.238Z,9.32
2022-08-23T16:15:52.332Z,8.45
2022-08-23T16:18:20.120Z,12.70
2022-08-23T16:20:47.503Z,8.70
2022-08-23T16:23:15.151Z,13.32
2022-08-23T16:25:43.300Z,10.15
2022-08-23T16:28:11.089Z,14.68
2022-08-23T16:30:38.709Z,11.75
2022-08-23T16:33:06.222Z,11.93
2022-08-23T16:35:33.756Z,8.55
2022-08-23T16:38:01.035Z,8.65
2022-08-23T16:40:28.623Z,12.15
2022-08-23T16:42:56.478Z,12.32
2022-08-23T16:45:25.851Z,8.43
2022-08-23T16:47:53.822Z,18.45
2022-08-23T16:50:21.693Z,13.82
2022-08-23T16:52:49.139Z,10.18
2022-08-23T16:55:17.166Z,12.55
2022-08-23T16:57:44.782Z,11.10
2022-08-23T17:00:14.252Z,14.27
2022-08-23T17:02:43.329Z,14.55
2022-08-23T17:05:15.559Z,14.05
2022-08-23T17:07:43.382Z,16.33
2022-08-23T17:10:12.898Z,6.70
2022-08-23T17:12:45.254Z,5.95
2022-08-23T17:15:18.885Z,11.50
2022-08-23T17:17:48.903Z,8.38
2022-08-23T17:20:16.929Z,9.50
2022-08-23T17:22:44.420Z,11.00
2022-08-23T17:25:12.541Z,7.05
2022-08-23T17:27:45.462Z,11.27
2022-08-23T17:30:16.485Z,10.07
2022-08-23T17:32:44.408Z,11.73
2022-08-23T17:35:15.007Z,12.07
2022-08-23T17:37:43.427Z,16.92
2022-08-23T17:40:14.956Z,8.85
2022-08-23T17:42:42.958Z,11.23
2022-08-23T17:45:11.689Z,13.80
2022-08-23T17:47:39.701Z,13.27
2022-08-23T17:50:12.795Z,10.55
2022-08-23T17:52:41.460Z,9.45
2022-08-23T17:55:10.614Z,16.52
2022-08-23T17:57:39.445Z,13.02
2022-08-23T18:00:08.674Z,14.40
2022-08-23T18:02:38.114Z,12.85
2022-08-23T18:05:08.127Z,13.75
2022-08-23T18:07:35.342Z,10.63
2022-08-23T18:10:08.414Z,11.73
2022-08-23T18:12:35.843Z,15.95
2022-08-23T18:15:06.110Z,16.65
2022-08-23T18:17:34.881Z,10.05
2022-08-23T18:20:02.214Z,12.77
2022-08-23T18:22:30.578Z,16.77
2022-08-23T18:24:57.899Z,11.98
2022-08-23T18:27:43.585Z,12.82
2022-08-23T18:30:11.765Z,18.35
2022-08-23T18:32:39.091Z,15.13
2022-08-23T18:35:08.163Z,15.38
2022-08-23T18:37:35.481Z,9.90
2022-08-23T18:40:06.553Z,12.00
2022-08-23T18:42:36.490Z,8.25
2022-08-23T18:45:07.114Z,14.18
2022-08-23T18:47:35.072Z,12.63
2022-08-23T18:50:02.539Z,11.20
2022-08-23T18:52:32.465Z,11.18
2022-08-23T18:54:59.772Z,8.93
2022-08-23T18:57:27.025Z,10.20
2022-08-23T18:59:54.325Z,13.90
2022-08-23T19:02:23.049Z,7.63
2022-08-23T19:04:50.829Z,11.07
2022-08-23T19:07:20.548Z,8.88
2022-08-23T19:09:47.899Z,9.88
2022-08-23T19:12:17.748Z,11.25
2022-08-23T19:14:45.362Z,9.82
2022-08-23T19:17:12.680Z,10.93
2022-08-23T19:19:40.119Z,11.57
2022-08-23T19:22:07.432Z,8.73
2022-08-23T19:24:34.908Z,10.00
2022-08-23T19:27:02.299Z,13.15
2022-08-23T19:29:29.699Z,11.35
2022-08-23T19:31:57.014Z,12.32
2022-08-23T19:34:25.003Z,11.85
2022-08-23T19:37:00.615Z,15.57
2022-08-23T19:39:38.302Z,9.13
2022-08-23T19:42:11.484Z,13.55
2022-08-23T19:44:42.099Z,12.07
2022-08-23T19:47:13.393Z,9.95
2022-08-23T19:49:48.866Z,13.48
2022-08-23T19:52:16.110Z,14.48
2022-08-23T19:54:43.397Z,11.25
2022-08-23T19:57:11.685Z,13.80
2022-08-23T19:59:40.442Z,17.95
2022-08-23T20:02:09.728Z,11.77
2022-08-23T20:04:37.338Z,9.40
2022-08-23T20:07:05.474Z,8.43
2022-08-23T20:09:33.529Z,10.45
2022-08-23T20:12:01.741Z,10.88
2022-08-23T20:14:33.776Z,10.02
2022-08-23T20:17:03.498Z,13.38
2022-08-23T20:19:31.515Z,9.68
2022-08-23T20:22:18.611Z,9.05
2022-08-23T20:24:51.881Z,9.60
2022-08-23T20:27:29.013Z,13.85
2022-08-23T20:30:01.877Z,16.20
2022-08-23T20:32:31.417Z,14.57
2022-08-23T20:35:00.296Z,13.23
2022-08-23T20:37:27.671Z,19.27
2022-08-23T20:39:55.478Z,10.25
2022-08-23T20:42:23.810Z,12.43
2022-08-23T20:44:51.688Z,10.38
2022-08-23T20:47:19.006Z,10.13
2022-08-23T20:49:46.442Z,14.85
2022-08-23T20:52:13.651Z,11.70
2022-08-23T20:54:40.923Z,15.70
2022-08-23T20:57:07.958Z,11.35
2022-08-23T20:59:35.827Z,14.07
2022-08-23T21:02:02.968Z,11.07
2022-08-23T21:04:30.604Z,13.25
2022-08-23T21:06:58.277Z,14.77
2022-08-23T21:09:29.510Z,11.82
2022-08-23T21:11:57.726Z,11.73
2022-08-23T21:14:24.997Z,14.55
2022-08-23T21:16:53.079Z,14.63
2022-08-23T21:19:20.289Z,15.88
2022-08-23T21:21:47.754Z,11.95
2022-08-23T21:24:15.880Z,13.23
2022-08-23T21:26:43.251Z,11.35
2022-08-23T21:29:11.119Z,13.73
2022-08-23T21:31:38.982Z,14.00
2022-08-23T21:34:07.758Z,12.63
2022-08-23T21:36:37.567Z,13.82
2022-08-23T21:39:05.704Z,13.23
2022-08-23T21:41:37.455Z,13.27
2022-08-23T21:44:07.409Z,14.00
2022-08-23T21:46:35.718Z,17.05
2022-08-23T21:49:03.736Z,13.80
2022-08-23T21:51:31.569Z,13.98
2022-08-23T21:56:30.287Z,12.65
2022-08-23T21:59:02.843Z,13.25
2022-08-23T22:01:31.704Z,12.32
2022-08-23T22:03:59.915Z,11.65
2022-08-23T22:06:27.459Z,16.08
2022-08-23T22:08:55.967Z,16.90
2022-08-23T22:11:26.071Z,12.05
2022-08-23T22:13:55.928Z,11.00
2022-08-23T22:16:23.597Z,15.85
2022-08-23T22:18:50.759Z,14.25
2022-08-23T22:21:18.099Z,11.75
2022-08-23T22:23:45.378Z,10.68
2022-08-23T22:26:14.111Z,12.45
2022-08-23T22:28:44.870Z,12.38
2022-08-23T22:31:14.674Z,14.38
2022-08-23T22:33:43.293Z,15.63
2022-08-23T22:36:16.634Z,11.38
2022-08-23T22:38:44.618Z,11.70
2022-08-23T22:41:15.792Z,13.18
2022-08-23T22:46:11.090Z,11.23
2022-08-23T22:48:38.359Z,13.65
2022-08-23T22:51:22.241Z,13.65
2022-08-23T22:53:53.466Z,11.25
2022-08-23T22:56:24.920Z,11.07
2022-08-23T22:58:54.774Z,17.20
2022-08-23T23:01:35.023Z,16.38
2022-08-23T23:04:05.003Z,12.20
2022-08-23T23:06:32.565Z,12.98
2022-08-23T23:09:00.656Z,12.43
2022-08-23T23:11:29.397Z,15.07
2022-08-23T23:13:58.042Z,15.05
2022-08-23T23:16:27.641Z,13.10
2022-08-23T23:19:14.634Z,16.95
2022-08-23T23:21:46.904Z,11.20
2022-08-23T23:24:26.282Z,17.70
2022-08-23T23:26:53.700Z,10.65
2022-08-23T23:29:21.711Z,16.10
2022-08-23T23:31:52.403Z,10.93
2022-08-23T23:34:21.485Z,10.93
2022-08-23T23:36:48.673Z,11.57
2022-08-23T23:39:16.517Z,14.63
2022-08-23T23:41:43.906Z,10.93
2022-08-23T23:44:11.160Z,11.60
2022-08-23T23:46:38.547Z,9.93
2022-08-23T23:49:05.708Z,10.00
2022-08-23T23:51:33.584Z,10.57
2022-08-23T23:54:01.366Z,13.48
2022-08-23T23:56:30.788Z,9.13
2022-08-23T23:58:59.352Z,9.35
